createdAt,value
2019-06-11T00:00:22.195Z,985.81
2019-06-11T00:01:22.854Z,985.78
2019-06-11T00:02:29.632Z,985.7
2019-06-11T00:03:22.153Z,985.69
2019-06-11T00:04:22.832Z,985.55
2019-06-11T00:05:23.122Z,985.53
2019-06-11T00:06:22.795Z,985.53
2019-06-11T00:07:22.025Z,985.59
2019-06-11T00:08:22.560Z,985.7
2019-06-11T00:09:22.057Z,985.8
2019-06-11T00:10:23.049Z,985.87
2019-06-11T00:11:22.958Z,985.93
2019-06-11T00:12:20.903Z,986.1
2019-06-11T00:13:22.414Z,986.17
2019-06-11T00:14:22.983Z,986.24
2019-06-11T00:15:22.507Z,986.28
2019-06-11T00:16:23.122Z,986.32
2019-06-11T00:17:22.328Z,986.36
2019-06-11T00:18:22.800Z,986.45
2019-06-11T00:19:22.849Z,986.51
2019-06-11T00:20:22.818Z,986.57
2019-06-11T00:21:22.537Z,986.66
2019-06-11T00:22:22.741Z,986.78
2019-06-11T00:23:22.194Z,986.89
2019-06-11T00:24:22.564Z,986.95
2019-06-11T00:25:23.110Z,986.99
2019-06-11T00:26:22.492Z,986.98
2019-06-11T00:27:22.470Z,986.94
2019-06-11T00:28:22.187Z,986.86
2019-06-11T00:29:22.807Z,986.78
2019-06-11T00:30:22.995Z,986.62
2019-06-11T00:31:22.861Z,986.49
2019-06-11T00:32:27.816Z,986.35
2019-06-11T00:33:22.481Z,986.32
2019-06-11T00:34:22.873Z,986.24
2019-06-11T00:35:23.069Z,986.21
2019-06-11T00:36:22.623Z,986.18
2019-06-11T00:37:21.963Z,986.14
2019-06-11T00:38:22.996Z,986.13
2019-06-11T00:39:22.394Z,986.16
2019-06-11T00:40:22.952Z,986.2
2019-06-11T00:41:22.710Z,986.27
2019-06-11T00:42:22.060Z,986.27
2019-06-11T00:43:22.993Z,986.33
2019-06-11T00:44:23.067Z,986.33
2019-06-11T00:45:23.118Z,986.4
2019-06-11T00:46:23.176Z,986.44
2019-06-11T00:47:22.591Z,986.47
2019-06-11T00:48:22.851Z,986.48
2019-06-11T00:49:23.166Z,986.51
2019-06-11T00:50:22.811Z,986.54
2019-06-11T00:51:23.274Z,986.53
2019-06-11T00:52:22.569Z,986.53
2019-06-11T00:53:23.313Z,986.54
2019-06-11T00:54:22.972Z,986.56
2019-06-11T00:55:23.083Z,986.56
2019-06-11T00:56:23.137Z,986.57
2019-06-11T00:57:22.579Z,986.56
2019-06-11T00:58:22.460Z,986.59
2019-06-11T00:59:23.248Z,986.58
2019-06-11T01:00:22.401Z,986.55
2019-06-11T01:01:22.450Z,986.56
2019-06-11T01:02:23.033Z,986.48
2019-06-11T01:03:22.651Z,986.44
2019-06-11T01:04:23.027Z,986.45
2019-06-11T01:05:22.531Z,986.41
2019-06-11T01:06:22.942Z,986.42
2019-06-11T01:07:22.754Z,986.43
2019-06-11T01:08:22.577Z,986.48
2019-06-11T01:09:23.375Z,986.59
2019-06-11T01:10:22.715Z,986.67
2019-06-11T01:11:22.503Z,986.72
2019-06-11T01:12:23.128Z,986.76
2019-06-11T01:13:22.834Z,986.82
2019-06-11T01:14:21.401Z,986.87
2019-06-11T01:15:23.128Z,986.92
2019-06-11T01:16:22.863Z,987.01
2019-06-11T01:17:23.362Z,987.07
2019-06-11T01:18:23.721Z,987.07
2019-06-11T01:19:23.107Z,987.04
2019-06-11T01:20:23.354Z,987.05
2019-06-11T01:21:23.278Z,987.03
2019-06-11T01:22:22.799Z,986.98
2019-06-11T01:23:22.361Z,986.96
2019-06-11T01:24:22.846Z,986.99
2019-06-11T01:25:23.117Z,986.97
2019-06-11T01:26:23.522Z,986.98
2019-06-11T01:27:22.138Z,986.97
2019-06-11T01:28:23.449Z,986.93
2019-06-11T01:29:22.689Z,986.96
2019-06-11T01:30:22.965Z,986.98
2019-06-11T01:31:22.727Z,987.01
2019-06-11T01:32:22.552Z,987.04
2019-06-11T01:33:23.558Z,987.06
2019-06-11T01:34:22.335Z,987.01
2019-06-11T01:35:23.277Z,986.99
2019-06-11T01:36:23.270Z,986.95
2019-06-11T01:37:22.754Z,986.91
2019-06-11T01:38:22.929Z,986.81
2019-06-11T01:39:22.199Z,986.81
2019-06-11T01:40:22.895Z,986.8
2019-06-11T01:41:22.475Z,986.79
2019-06-11T01:42:22.108Z,986.85
2019-06-11T01:43:23.014Z,986.93
2019-06-11T01:44:22.898Z,987.02
2019-06-11T01:45:22.871Z,987.04
2019-06-11T01:46:22.394Z,987.11
2019-06-11T01:47:22.038Z,987.05
2019-06-11T01:48:22.994Z,987.09
2019-06-11T01:49:22.283Z,987.12
2019-06-11T01:50:23.149Z,987.08
2019-06-11T01:51:23.408Z,987.13
2019-06-11T01:52:22.007Z,987.19
2019-06-11T01:53:23.180Z,987.23
2019-06-11T01:54:22.419Z,987.29
2019-06-11T01:55:23.089Z,987.25
2019-06-11T01:56:22.683Z,987.2
2019-06-11T01:57:22.849Z,987.19
2019-06-11T01:58:22.942Z,987.12
2019-06-11T01:59:23.010Z,987.08
2019-06-11T02:00:26.024Z,987.07
2019-06-11T02:01:23.994Z,987.05
2019-06-11T02:02:22.805Z,987.02
2019-06-11T02:03:33.456Z,986.98
2019-06-11T02:04:22.784Z,987.01
2019-06-11T02:05:22.247Z,987.12
2019-06-11T02:06:23.123Z,987.16
2019-06-11T02:07:22.471Z,987.22
2019-06-11T02:08:23.254Z,987.28
2019-06-11T02:09:22.610Z,987.33
2019-06-11T02:10:22.558Z,987.4
2019-06-11T02:11:23.185Z,987.49
2019-06-11T02:12:22.459Z,987.51
2019-06-11T02:13:23.098Z,987.57
2019-06-11T02:14:22.718Z,987.6
2019-06-11T02:15:23.185Z,987.67
2019-06-11T02:16:24.275Z,987.64
2019-06-11T02:17:22.536Z,987.66
2019-06-11T02:18:23.060Z,987.62
2019-06-11T02:19:23.519Z,987.56
2019-06-11T02:20:22.353Z,987.57
2019-06-11T02:21:23.408Z,987.57
2019-06-11T02:22:22.868Z,987.57
2019-06-11T02:23:22.318Z,987.51
2019-06-11T02:24:23.014Z,987.47
2019-06-11T02:25:22.612Z,987.45
2019-06-11T02:26:22.783Z,987.39
2019-06-11T02:27:23.003Z,987.39
2019-06-11T02:28:22.802Z,987.47
2019-06-11T02:29:22.251Z,987.49
2019-06-11T02:30:42.415Z,987.51
2019-06-11T02:31:30.892Z,987.57
2019-06-11T02:32:28.025Z,987.62
2019-06-11T02:33:35.849Z,987.62
2019-06-11T02:35:44.931Z,987.74
2019-06-11T02:36:37.106Z,987.7
2019-06-11T02:37:35.961Z,987.66
2019-06-11T02:38:35.960Z,987.64
2019-06-11T02:39:35.969Z,987.59
2019-06-11T02:40:35.964Z,987.51
2019-06-11T02:41:35.963Z,987.6
2019-06-11T02:42:35.960Z,987.6
2019-06-11T02:43:35.963Z,987.62
2019-06-11T02:44:35.969Z,987.65
2019-06-11T02:45:35.960Z,987.68
2019-06-11T02:46:35.957Z,987.65
2019-06-11T02:47:35.949Z,987.54
2019-06-11T02:48:39.618Z,987.49
2019-06-11T02:49:35.947Z,987.48
2019-06-11T02:50:35.946Z,987.41
2019-06-11T02:51:35.944Z,987.35
2019-06-11T02:52:35.954Z,987.28
2019-06-11T02:53:35.942Z,987.3
2019-06-11T02:54:35.937Z,987.27
2019-06-11T02:55:35.938Z,987.34
2019-06-11T02:56:35.943Z,987.37
2019-06-11T02:57:35.937Z,987.45
2019-06-11T02:58:35.935Z,987.37
2019-06-11T02:59:35.954Z,987.38
2019-06-11T03:00:44.961Z,987.3
2019-06-11T03:01:36.800Z,987.27
2019-06-11T03:02:35.930Z,987.27
2019-06-11T03:03:35.935Z,987.31
2019-06-11T03:04:51.408Z,987.32
2019-06-11T03:05:43.873Z,987.37
2019-06-11T03:06:43.876Z,987.27
2019-06-11T03:07:43.881Z,987.27
2019-06-11T03:08:43.871Z,987.24
2019-06-11T03:09:43.874Z,987.22
2019-06-11T03:10:44.118Z,987.22
2019-06-11T03:11:43.866Z,987.13
2019-06-11T03:12:43.870Z,987.03
2019-06-11T03:13:43.869Z,986.91
2019-06-11T03:14:43.862Z,986.84
2019-06-11T03:15:43.861Z,986.78
2019-06-11T03:16:44.660Z,986.69
2019-06-11T03:17:43.861Z,986.69
2019-06-11T03:18:43.986Z,986.64
2019-06-11T03:19:43.938Z,986.53
2019-06-11T03:20:43.856Z,986.46
2019-06-11T03:21:43.857Z,986.42
2019-06-11T03:22:43.853Z,986.48
2019-06-11T03:23:43.846Z,986.52
2019-06-11T03:24:43.850Z,986.49
2019-06-11T03:25:43.857Z,986.44
2019-06-11T03:26:43.845Z,986.34
2019-06-11T03:27:43.844Z,986.21
2019-06-11T03:28:43.844Z,986.19
2019-06-11T03:29:43.849Z,986.14
2019-06-11T03:31:10.209Z,986.16
2019-06-11T03:35:42.702Z,986.04
2019-06-11T03:38:58.053Z,985.84
2019-06-11T03:40:06.824Z,985.83
2019-06-11T03:41:05.990Z,985.86
2019-06-11T03:42:11.737Z,985.88
2019-06-11T03:43:05.991Z,985.84
2019-06-11T03:44:05.987Z,985.79
2019-06-11T03:45:06.003Z,985.8
2019-06-11T03:46:05.989Z,985.87
2019-06-11T03:47:05.991Z,985.89
2019-06-11T03:48:05.982Z,985.85
2019-06-11T03:49:05.986Z,985.9
2019-06-11T03:50:05.986Z,985.99
2019-06-11T03:51:05.979Z,986.02
2019-06-11T03:52:05.991Z,986.05
2019-06-11T03:53:05.986Z,986.03
2019-06-11T03:54:05.972Z,986.03
2019-06-11T03:55:05.986Z,985.98
2019-06-11T03:56:05.973Z,986.05
2019-06-11T03:57:05.975Z,986.14
2019-06-11T03:58:05.973Z,986.24
2019-06-11T03:59:05.969Z,986.29
2019-06-11T04:00:15.289Z,986.23
2019-06-11T04:01:05.970Z,986.18
2019-06-11T04:02:05.969Z,986.08
2019-06-11T04:03:05.967Z,986.11
2019-06-11T04:04:05.965Z,986.1
2019-06-11T04:05:05.963Z,986.16
2019-06-11T04:06:05.962Z,986.13
2019-06-11T04:07:35.828Z,986.18
2019-06-11T04:08:24.975Z,986.24
2019-06-11T04:09:26.104Z,986.23
2019-06-11T04:10:29.551Z,986.24
2019-06-11T04:11:24.386Z,986.18
2019-06-11T04:12:26.030Z,986.19
2019-06-11T04:13:26.677Z,986.17
2019-06-11T04:14:25.650Z,986.22
2019-06-11T04:15:26.687Z,986.22
2019-06-11T04:16:49.612Z,986.27
2019-06-11T04:18:04.470Z,986.31
2019-06-11T04:19:01.363Z,986.38
2019-06-11T04:20:02.247Z,986.31
2019-06-11T04:21:01.264Z,986.36
2019-06-11T04:22:02.289Z,986.35
2019-06-11T04:23:01.638Z,986.35
2019-06-11T04:24:01.200Z,986.4
2019-06-11T04:25:01.669Z,986.42
2019-06-11T04:26:01.728Z,986.37
2019-06-11T04:27:01.959Z,986.37
2019-06-11T04:28:02.325Z,986.34
2019-06-11T04:29:01.348Z,986.31
2019-06-11T04:30:01.797Z,986.27
2019-06-11T04:31:03.134Z,986.29
2019-06-11T04:32:01.975Z,986.23
2019-06-11T04:33:02.228Z,986.24
2019-06-11T04:34:02.622Z,986.27
2019-06-11T04:35:01.493Z,986.35
2019-06-11T04:36:02.272Z,986.35
2019-06-11T04:37:15.564Z,986.31
2019-06-11T04:38:40.469Z,986.32
2019-06-11T04:39:36.185Z,986.28
2019-06-11T04:40:35.604Z,986.28
2019-06-11T04:41:35.577Z,986.31
2019-06-11T04:42:35.631Z,986.32
2019-06-11T04:43:36.323Z,986.31
2019-06-11T04:44:34.969Z,986.28
2019-06-11T04:45:35.160Z,986.2
2019-06-11T04:46:36.887Z,986.17
2019-06-11T04:47:43.062Z,986.14
2019-06-11T04:48:37.956Z,986.15
2019-06-11T04:49:37.965Z,986.09
2019-06-11T04:50:35.692Z,986.09
2019-06-11T04:51:37.459Z,986.09
2019-06-11T04:52:34.693Z,986.09
2019-06-11T04:53:36.306Z,986.07
2019-06-11T04:54:36.317Z,986.05
2019-06-11T04:55:36.550Z,986.04
2019-06-11T04:56:38.673Z,986.03
2019-06-11T04:57:35.507Z,985.99
2019-06-11T04:58:38.322Z,985.99
2019-06-11T04:59:37.249Z,986.01
2019-06-11T05:02:37.587Z,986.06
2019-06-11T05:05:15.325Z,986.21
2019-06-11T05:06:14.668Z,986.22
2019-06-11T05:07:32.512Z,986.18
2019-06-11T05:08:38.205Z,986.12
2019-06-11T05:09:37.835Z,986.13
2019-06-11T05:10:36.671Z,986.11
2019-06-11T05:11:39.167Z,986.11
2019-06-11T05:12:36.933Z,986.17
2019-06-11T05:13:36.392Z,986.15
2019-06-11T05:14:50.759Z,986.14
2019-06-11T05:15:42.263Z,986.11
2019-06-11T05:16:44.188Z,986.15
2019-06-11T05:17:41.918Z,986.15
2019-06-11T05:18:41.817Z,986.19
2019-06-11T05:19:43.735Z,986.2
2019-06-11T05:20:41.705Z,986.17
2019-06-11T05:21:42.911Z,986.14
2019-06-11T05:22:41.767Z,986.13
2019-06-11T05:23:41.887Z,986.13
2019-06-11T05:24:42.731Z,986.14
2019-06-11T05:25:53.538Z,986.12
2019-06-11T05:26:42.405Z,986.09
2019-06-11T05:27:41.152Z,986.13
2019-06-11T05:28:41.126Z,986.11
2019-06-11T05:29:41.761Z,986.14
2019-06-11T05:30:45.001Z,986.13
2019-06-11T05:31:46.763Z,986.19
2019-06-11T05:32:41.698Z,986.26
2019-06-11T05:33:42.372Z,986.25
2019-06-11T05:34:41.478Z,986.26
2019-06-11T05:35:41.130Z,986.26
2019-06-11T05:36:41.529Z,986.23
2019-06-11T05:38:00.785Z,986.25
2019-06-11T05:38:55.201Z,986.24
2019-06-11T05:39:55.146Z,986.29
2019-06-11T05:40:55.260Z,986.28
2019-06-11T05:41:55.150Z,986.28
2019-06-11T05:42:55.144Z,986.29
2019-06-11T05:43:55.144Z,986.26
2019-06-11T05:44:58.653Z,986.25
2019-06-11T05:45:55.144Z,986.35
2019-06-11T05:46:55.141Z,986.32
2019-06-11T05:47:55.137Z,986.33
2019-06-11T05:48:55.141Z,986.3
2019-06-11T05:49:55.142Z,986.26
2019-06-11T05:50:55.168Z,986.31
2019-06-11T05:51:55.137Z,986.31
2019-06-11T05:52:55.138Z,986.31
2019-06-11T05:53:55.139Z,986.29
2019-06-11T05:54:55.140Z,986.29
2019-06-11T05:55:55.129Z,986.28
2019-06-11T05:56:55.142Z,986.22
2019-06-11T05:57:55.129Z,986.25
2019-06-11T05:58:55.147Z,986.29
2019-06-11T05:59:55.125Z,986.25
2019-06-11T06:00:56.883Z,986.25
2019-06-11T06:02:05.553Z,986.25
2019-06-11T06:03:04.735Z,986.27
2019-06-11T06:04:04.737Z,986.27
2019-06-11T06:05:04.731Z,986.28
2019-06-11T06:06:04.737Z,986.26
2019-06-11T06:07:04.733Z,986.31
2019-06-11T06:08:15.459Z,986.28
2019-06-11T06:09:06.616Z,986.31
2019-06-11T06:10:04.722Z,986.26
2019-06-11T06:11:04.731Z,986.27
2019-06-11T06:12:04.724Z,986.3
2019-06-11T06:13:04.728Z,986.29
2019-06-11T06:14:04.726Z,986.3
2019-06-11T06:15:05.520Z,986.29
2019-06-11T06:16:04.751Z,986.31
2019-06-11T06:17:04.722Z,986.31
2019-06-11T06:18:04.723Z,986.24
2019-06-11T06:19:04.726Z,986.2
2019-06-11T06:20:04.733Z,986.19
2019-06-11T06:21:04.727Z,986.21
2019-06-11T06:22:05.371Z,986.2
2019-06-11T06:23:04.740Z,986.19
2019-06-11T06:24:17.685Z,986.2
2019-06-11T06:25:04.715Z,986.19
2019-06-11T06:26:04.712Z,986.13
2019-06-11T06:27:04.720Z,986.1
2019-06-11T06:28:04.709Z,986.11
2019-06-11T06:29:04.729Z,986.07
2019-06-11T06:30:09.271Z,986.08
2019-06-11T06:31:04.708Z,986.1
2019-06-11T06:32:04.713Z,986.13
2019-06-11T06:33:04.699Z,986.13
2019-06-11T06:34:04.711Z,986.07
2019-06-11T06:35:04.704Z,986.08
2019-06-11T06:36:04.701Z,986.11
2019-06-11T06:37:04.717Z,986.05
2019-06-11T06:38:04.704Z,986.05
2019-06-11T06:39:04.698Z,986.03
2019-06-11T06:40:04.695Z,985.95
2019-06-11T06:41:04.703Z,985.96
2019-06-11T06:42:04.696Z,985.94
2019-06-11T06:43:04.704Z,985.94
2019-06-11T06:44:04.706Z,985.92
2019-06-11T06:45:04.914Z,985.95
2019-06-11T06:46:04.696Z,985.91
2019-06-11T06:47:04.692Z,985.9
2019-06-11T06:48:04.689Z,985.86
2019-06-11T06:49:04.699Z,985.94
2019-06-11T06:50:04.696Z,985.88
2019-06-11T06:51:04.699Z,985.91
2019-06-11T06:52:04.705Z,985.95
2019-06-11T06:53:04.696Z,985.9
2019-06-11T06:54:04.692Z,985.98
2019-06-11T06:55:04.689Z,985.98
2019-06-11T06:56:04.696Z,985.96
2019-06-11T06:57:04.691Z,985.94
2019-06-11T06:58:04.680Z,985.9
2019-06-11T06:59:04.692Z,985.91
2019-06-11T07:00:09.219Z,985.86
2019-06-11T07:01:04.688Z,985.85
2019-06-11T07:02:04.699Z,985.91
2019-06-11T07:03:04.680Z,985.89
2019-06-11T07:04:04.694Z,985.89
2019-06-11T07:05:04.678Z,985.87
2019-06-11T07:06:04.688Z,985.86
2019-06-11T07:07:04.705Z,985.84
2019-06-11T07:08:04.688Z,985.88
2019-06-11T07:09:08.507Z,985.87
2019-06-11T07:10:04.683Z,985.87
2019-06-11T07:11:04.684Z,985.89
2019-06-11T07:12:04.679Z,985.91
2019-06-11T07:13:04.678Z,985.89
2019-06-11T07:14:04.678Z,985.96
2019-06-11T07:15:04.675Z,985.95
2019-06-11T07:16:04.681Z,985.99
2019-06-11T07:17:07.357Z,986
2019-06-11T07:18:04.683Z,986.01
2019-06-11T07:19:04.675Z,985.98
2019-06-11T07:20:04.669Z,986.01
2019-06-11T07:21:04.684Z,986
2019-06-11T07:22:04.675Z,985.95
2019-06-11T07:23:04.679Z,986.01
2019-06-11T07:24:08.430Z,985.98
2019-06-11T07:25:04.678Z,986.04
2019-06-11T07:26:04.674Z,986.02
2019-06-11T07:27:04.679Z,986.03
2019-06-11T07:28:04.680Z,986.04
2019-06-11T07:29:04.674Z,986.01
2019-06-11T07:30:05.993Z,986
2019-06-11T07:31:04.674Z,986.01
2019-06-11T07:32:04.679Z,985.99
2019-06-11T07:33:06.064Z,985.99
2019-06-11T07:34:04.677Z,986
2019-06-11T07:35:04.675Z,986
2019-06-11T07:36:07.639Z,986.01
2019-06-11T07:37:04.694Z,986.02
2019-06-11T07:39:38.740Z,985.94
2019-06-11T07:40:37.310Z,985.98
2019-06-11T07:41:36.874Z,985.97
2019-06-11T07:42:37.453Z,985.97
2019-06-11T07:43:38.653Z,985.98
2019-06-11T07:46:00.831Z,986.06
2019-06-11T07:48:43.473Z,986.06
2019-06-11T07:49:37.186Z,986.12
2019-06-11T07:50:36.169Z,986.12
2019-06-11T07:51:35.955Z,986.12
2019-06-11T07:52:36.627Z,986.14
2019-06-11T07:53:36.190Z,986.11
2019-06-11T07:54:36.899Z,986.14
2019-06-11T07:55:36.006Z,986.13
2019-06-11T07:56:35.482Z,986.1
2019-06-11T07:57:37.538Z,986.1
2019-06-11T07:58:36.142Z,986.07
2019-06-11T07:59:36.414Z,986.11
2019-06-11T08:00:35.571Z,986.12
2019-06-11T08:01:38.466Z,986.12
2019-06-11T08:02:35.656Z,986.14
2019-06-11T08:03:36.469Z,986.23
2019-06-11T08:04:36.660Z,986.21
2019-06-11T08:05:38.140Z,986.07
2019-06-11T08:06:37.412Z,986.02
2019-06-11T08:07:38.098Z,986.07
2019-06-11T08:08:36.385Z,986.04
2019-06-11T08:11:13.273Z,985.95
2019-06-11T08:12:12.631Z,985.94
2019-06-11T08:13:12.889Z,985.96
2019-06-11T08:14:15.110Z,985.92
2019-06-11T08:15:11.742Z,985.89
2019-06-11T08:16:11.491Z,985.84
2019-06-11T08:17:13.680Z,985.88
2019-06-11T08:18:14.120Z,985.87
2019-06-11T08:19:15.088Z,986.02
2019-06-11T08:22:22.844Z,985.95
2019-06-11T08:25:17.063Z,985.94
2019-06-11T08:28:15.566Z,985.94
2019-06-11T08:29:13.141Z,985.97
2019-06-11T08:30:13.141Z,986.02
2019-06-11T08:31:13.141Z,985.99
2019-06-11T08:32:13.152Z,985.95
2019-06-11T08:33:13.146Z,985.95
2019-06-11T08:34:13.150Z,985.98
2019-06-11T08:35:17.156Z,985.99
2019-06-11T08:36:13.152Z,985.93
2019-06-11T08:37:13.157Z,985.95
2019-06-11T08:38:13.156Z,985.94
2019-06-11T08:39:13.158Z,985.96
2019-06-11T08:40:19.713Z,985.98
2019-06-11T08:41:13.161Z,985.96
2019-06-11T08:42:13.175Z,985.94
2019-06-11T08:43:13.165Z,985.86
2019-06-11T08:44:13.185Z,985.83
2019-06-11T08:45:19.849Z,985.9
2019-06-11T08:46:13.180Z,985.88
2019-06-11T08:47:13.182Z,985.87
2019-06-11T08:48:13.183Z,985.9
2019-06-11T08:49:13.184Z,985.94
2019-06-11T08:50:13.197Z,985.86
2019-06-11T08:51:13.195Z,985.87
2019-06-11T08:52:13.188Z,985.88
2019-06-11T08:53:14.470Z,985.9
2019-06-11T08:54:13.190Z,985.89
2019-06-11T08:55:13.187Z,985.92
2019-06-11T08:56:13.189Z,985.9
2019-06-11T08:57:13.197Z,985.92
2019-06-11T08:58:13.214Z,985.96
2019-06-11T08:59:13.195Z,985.93
2019-06-11T09:00:29.086Z,985.95
2019-06-11T09:01:14.626Z,985.91
2019-06-11T09:02:14.598Z,985.86
2019-06-11T09:03:14.604Z,985.84
2019-06-11T09:04:14.601Z,985.84
2019-06-11T09:05:14.614Z,985.89
2019-06-11T09:06:14.765Z,985.88
2019-06-11T09:07:14.613Z,985.81
2019-06-11T09:08:14.607Z,985.81
2019-06-11T09:09:14.611Z,985.81
2019-06-11T09:10:27.020Z,985.82
2019-06-11T09:11:14.617Z,985.88
2019-06-11T09:12:14.620Z,985.92
2019-06-11T09:13:14.617Z,985.97
2019-06-11T09:14:14.621Z,985.94
2019-06-11T09:15:14.621Z,985.96
2019-06-11T09:16:14.624Z,985.94
2019-06-11T09:17:14.629Z,985.88
2019-06-11T09:18:14.625Z,985.82
2019-06-11T09:19:14.629Z,985.88
2019-06-11T09:20:14.631Z,985.89
2019-06-11T09:21:14.635Z,985.9
2019-06-11T09:22:14.635Z,985.9
2019-06-11T09:23:14.641Z,985.86
2019-06-11T09:24:14.638Z,985.82
2019-06-11T09:25:14.646Z,985.73
2019-06-11T09:26:14.644Z,985.68
2019-06-11T09:27:14.643Z,985.64
2019-06-11T09:28:14.647Z,985.65
2019-06-11T09:29:14.651Z,985.66
2019-06-11T09:30:14.656Z,985.62
2019-06-11T09:31:14.653Z,985.66
2019-06-11T09:32:14.655Z,985.67
2019-06-11T09:33:14.676Z,985.66
2019-06-11T09:34:14.659Z,985.67
2019-06-11T09:35:14.660Z,985.7
2019-06-11T09:36:14.813Z,985.68
2019-06-11T09:37:14.664Z,985.65
2019-06-11T09:38:14.667Z,985.65
2019-06-11T09:39:14.667Z,985.64
2019-06-11T09:40:14.676Z,985.59
2019-06-11T09:41:14.674Z,985.59
2019-06-11T09:42:14.677Z,985.62
2019-06-11T09:43:14.678Z,985.66
2019-06-11T09:44:14.679Z,985.6
2019-06-11T09:45:14.682Z,985.63
2019-06-11T09:46:14.686Z,985.67
2019-06-11T09:47:14.683Z,985.65
2019-06-11T09:48:14.684Z,985.66
2019-06-11T09:49:14.809Z,985.66
2019-06-11T09:50:14.690Z,985.66
2019-06-11T09:51:14.696Z,985.6
2019-06-11T09:52:14.692Z,985.62
2019-06-11T09:53:14.698Z,985.63
2019-06-11T09:54:14.694Z,985.62
2019-06-11T09:55:14.699Z,985.67
2019-06-11T09:56:14.695Z,985.74
2019-06-11T09:57:14.699Z,985.72
2019-06-11T09:58:14.699Z,985.73
2019-06-11T09:59:14.713Z,985.72
2019-06-11T10:00:14.703Z,985.74
2019-06-11T10:01:14.711Z,985.7
2019-06-11T10:02:14.706Z,985.7
2019-06-11T10:03:14.705Z,985.67
2019-06-11T10:04:14.706Z,985.66
2019-06-11T10:05:14.711Z,985.65
2019-06-11T10:06:16.459Z,985.66
2019-06-11T10:07:14.717Z,985.62
2019-06-11T10:08:14.711Z,985.62
2019-06-11T10:09:14.719Z,985.64
2019-06-11T10:10:14.712Z,985.64
2019-06-11T10:12:14.716Z,985.59
2019-06-11T10:13:14.727Z,985.57
2019-06-11T10:14:14.719Z,985.61
2019-06-11T10:15:14.727Z,985.62
2019-06-11T10:16:14.722Z,985.61
2019-06-11T10:17:14.742Z,985.63
2019-06-11T10:18:14.728Z,985.61
2019-06-11T10:19:14.727Z,985.55
2019-06-11T10:20:14.729Z,985.54
2019-06-11T10:21:14.732Z,985.55
2019-06-11T10:22:14.732Z,985.54
2019-06-11T10:23:14.733Z,985.55
2019-06-11T10:24:14.758Z,985.54
2019-06-11T10:25:14.735Z,985.56
2019-06-11T10:26:14.739Z,985.6
2019-06-11T10:27:14.743Z,985.59
2019-06-11T10:28:21.491Z,985.6
2019-06-11T10:29:14.743Z,985.55
2019-06-11T10:30:14.749Z,985.53
2019-06-11T10:31:14.747Z,985.49
2019-06-11T10:32:14.749Z,985.48
2019-06-11T10:33:14.748Z,985.51
2019-06-11T10:34:14.768Z,985.54
2019-06-11T10:35:14.752Z,985.54
2019-06-11T10:36:14.752Z,985.54
2019-06-11T10:37:15.708Z,985.49
2019-06-11T10:38:14.757Z,985.47
2019-06-11T10:39:14.759Z,985.51
2019-06-11T10:40:14.762Z,985.51
2019-06-11T10:41:14.760Z,985.55
2019-06-11T10:42:14.778Z,985.58
2019-06-11T10:43:14.776Z,985.61
2019-06-11T10:44:14.767Z,985.61
2019-06-11T10:45:14.767Z,985.61
2019-06-11T10:46:14.779Z,985.65
2019-06-11T10:47:14.775Z,985.66
2019-06-11T10:48:17.813Z,985.66
2019-06-11T10:49:14.773Z,985.6
2019-06-11T10:50:14.773Z,985.61
2019-06-11T10:51:14.780Z,985.6
2019-06-11T10:52:14.776Z,985.6
2019-06-11T10:53:14.777Z,985.65
2019-06-11T10:54:14.801Z,985.68
2019-06-11T10:55:14.847Z,985.66
2019-06-11T10:56:14.845Z,985.67
2019-06-11T10:57:14.784Z,985.68
2019-06-11T10:58:17.656Z,985.69
2019-06-11T10:59:14.975Z,985.64
2019-06-11T11:00:14.785Z,985.61
2019-06-11T11:01:14.786Z,985.56
2019-06-11T11:02:14.797Z,985.55
2019-06-11T11:03:14.789Z,985.52
2019-06-11T11:04:14.792Z,985.5
2019-06-11T11:05:14.792Z,985.45
2019-06-11T11:06:14.797Z,985.42
2019-06-11T11:07:14.796Z,985.4
2019-06-11T11:08:14.798Z,985.37
2019-06-11T11:09:14.798Z,985.39
2019-06-11T11:10:14.805Z,985.38
2019-06-11T11:11:14.805Z,985.38
2019-06-11T11:12:23.632Z,985.34
2019-06-11T11:13:14.805Z,985.3
2019-06-11T11:14:14.813Z,985.31
2019-06-11T11:15:14.813Z,985.33
2019-06-11T11:16:14.811Z,985.33
2019-06-11T11:17:14.836Z,985.31
2019-06-11T11:18:14.825Z,985.35
2019-06-11T11:19:14.827Z,985.31
2019-06-11T11:20:14.824Z,985.26
2019-06-11T11:21:14.828Z,985.3
2019-06-11T11:22:14.829Z,985.3
2019-06-11T11:23:14.829Z,985.34
2019-06-11T11:24:14.833Z,985.31
2019-06-11T11:25:14.832Z,985.26
2019-06-11T11:26:14.832Z,985.25
2019-06-11T11:27:14.830Z,985.22
2019-06-11T11:28:21.890Z,985.21
2019-06-11T11:29:14.835Z,985.32
2019-06-11T11:30:14.849Z,985.32
2019-06-11T11:31:14.834Z,985.4
2019-06-11T11:32:14.834Z,985.41
2019-06-11T11:33:14.832Z,985.47
2019-06-11T11:34:14.839Z,985.47
2019-06-11T11:35:14.834Z,985.48
2019-06-11T11:36:14.837Z,985.43
2019-06-11T11:37:15.243Z,985.37
2019-06-11T11:38:15.790Z,985.36
2019-06-11T11:39:14.845Z,985.23
2019-06-11T11:40:14.841Z,985.23
2019-06-11T11:41:14.846Z,985.24
2019-06-11T11:42:29.454Z,985.21
2019-06-11T11:43:14.853Z,985.23
2019-06-11T11:44:14.847Z,985.24
2019-06-11T11:45:14.867Z,985.28
2019-06-11T11:46:14.850Z,985.25
2019-06-11T11:47:14.851Z,985.31
2019-06-11T11:48:14.850Z,985.33
2019-06-11T11:49:14.850Z,985.33
2019-06-11T11:50:14.853Z,985.33
2019-06-11T11:51:14.855Z,985.32
2019-06-11T11:52:14.855Z,985.24
2019-06-11T11:53:14.856Z,985.28
2019-06-11T11:54:14.858Z,985.3
2019-06-11T11:55:14.863Z,985.33
2019-06-11T11:56:14.941Z,985.38
2019-06-11T11:57:14.862Z,985.35
2019-06-11T11:58:14.866Z,985.33
2019-06-11T11:59:14.863Z,985.32
2019-06-11T12:00:18.285Z,985.33
2019-06-11T12:01:14.864Z,985.3
2019-06-11T12:02:14.872Z,985.26
2019-06-11T12:03:14.869Z,985.27
2019-06-11T12:04:14.880Z,985.26
2019-06-11T12:05:14.866Z,985.27
2019-06-11T12:06:14.997Z,985.24
2019-06-11T12:07:14.870Z,985.18
2019-06-11T12:08:14.871Z,985.2
2019-06-11T12:09:14.872Z,985.18
2019-06-11T12:10:14.871Z,985.17
2019-06-11T12:11:17.249Z,985.16
2019-06-11T12:12:14.875Z,985.14
2019-06-11T12:13:14.875Z,985.16
2019-06-11T12:14:14.877Z,985.14
2019-06-11T12:15:14.884Z,985.21
2019-06-11T12:16:24.585Z,985.23
2019-06-11T12:17:14.882Z,985.24
2019-06-11T12:18:14.883Z,985.28
2019-06-11T12:19:18.912Z,985.29
2019-06-11T12:20:14.881Z,985.3
2019-06-11T12:21:14.894Z,985.31
2019-06-11T12:22:14.890Z,985.29
2019-06-11T12:23:14.889Z,985.33
2019-06-11T12:24:14.884Z,985.27
2019-06-11T12:25:30.494Z,985.23
2019-06-11T12:26:14.898Z,985.26
2019-06-11T12:27:14.905Z,985.22
2019-06-11T12:28:14.888Z,985.23
2019-06-11T12:29:14.895Z,985.24
2019-06-11T12:30:15.344Z,985.2
2019-06-11T12:31:14.890Z,985.21
2019-06-11T12:32:14.896Z,985.23
2019-06-11T12:33:14.893Z,985.22
2019-06-11T12:34:14.895Z,985.19
2019-06-11T12:35:14.899Z,985.18
2019-06-11T12:36:14.892Z,985.13
2019-06-11T12:37:14.897Z,985.16
2019-06-11T12:38:14.896Z,985.12
2019-06-11T12:39:14.897Z,985.11
2019-06-11T12:40:14.898Z,985.09
2019-06-11T12:41:14.899Z,985.1
2019-06-11T12:42:14.899Z,985.15
2019-06-11T12:43:31.464Z,985.18
2019-06-11T12:44:14.907Z,985.19
2019-06-11T12:45:14.908Z,985.27
2019-06-11T12:46:14.898Z,985.28
2019-06-11T12:47:14.901Z,985.27
2019-06-11T12:48:14.903Z,985.28
2019-06-11T12:49:14.928Z,985.24
2019-06-11T12:50:14.901Z,985.23
2019-06-11T12:51:18.140Z,985.25
2019-06-11T12:52:14.904Z,985.25
2019-06-11T12:53:14.906Z,985.25
2019-06-11T12:54:14.908Z,985.28
2019-06-11T12:55:14.913Z,985.25
2019-06-11T12:56:14.929Z,985.24
2019-06-11T12:57:14.909Z,985.25